createdAt,value
2022-12-13T00:01:53.703Z,-1.00
2022-12-13T00:04:22.391Z,-1.10
2022-12-13T00:06:57.501Z,0.20
2022-12-13T00:09:25.413Z,-0.60
2022-12-13T00:11:52.555Z,-1.20
2022-12-13T00:14:22.152Z,-1.00
2022-12-13T00:16:51.750Z,-1.20
2022-12-13T00:19:18.656Z,-1.30
2022-12-13T00:21:47.414Z,-0.80
2022-12-13T00:24:14.886Z,-2.00
2022-12-13T00:26:44.801Z,-0.10
2022-12-13T00:29:11.850Z,-1.30
2022-12-13T00:32:00.172Z,-1.20
2022-12-13T00:34:27.373Z,0.10
2022-12-13T00:36:54.867Z,-1.10
2022-12-13T00:39:24.708Z,-1.20
2022-12-13T00:41:51.447Z,-1.30
2022-12-13T00:44:21.320Z,0.00
2022-12-13T00:46:48.192Z,-1.50
2022-12-13T00:49:15.161Z,-1.50
2022-12-13T00:51:44.344Z,-1.60
2022-12-13T00:54:13.425Z,-1.60
2022-12-13T00:56:40.414Z,-0.60
2022-12-13T00:59:09.418Z,-1.20
2022-12-13T01:01:36.781Z,-1.70
2022-12-13T01:04:04.030Z,-0.70
2022-12-13T01:06:37.895Z,-1.70
2022-12-13T01:09:06.015Z,-1.70
2022-12-13T01:11:32.724Z,-1.60
2022-12-13T01:13:59.558Z,-1.90
2022-12-13T01:16:27.650Z,-1.80
2022-12-13T01:18:54.696Z,-0.90
2022-12-13T01:21:24.321Z,-1.90
2022-12-13T01:23:51.406Z,-1.70
2022-12-13T01:26:19.580Z,-1.40
2022-12-13T01:28:49.449Z,-1.80
2022-12-13T01:31:18.722Z,-1.80
2022-12-13T01:33:45.773Z,-1.90
2022-12-13T01:36:13.841Z,-0.60
2022-12-13T01:38:40.794Z,-1.80
2022-12-13T01:41:16.994Z,-1.80
2022-12-13T01:43:44.948Z,-2.20
2022-12-13T01:46:11.970Z,-1.80
2022-12-13T01:48:46.467Z,-1.80
2022-12-13T01:51:16.108Z,-1.80
2022-12-13T01:53:43.016Z,-1.80
2022-12-13T01:56:17.649Z,-1.00
2022-12-13T01:58:44.479Z,-1.90
2022-12-13T02:01:11.247Z,-1.80
2022-12-13T02:03:37.991Z,-1.90
2022-12-13T02:06:06.282Z,-1.80
2022-12-13T02:08:35.736Z,-1.90
2022-12-13T02:11:03.032Z,-1.70
2022-12-13T02:13:29.750Z,-1.30
2022-12-13T02:16:07.212Z,-1.30
2022-12-13T02:18:38.228Z,-2.00
2022-12-13T02:21:08.067Z,-1.80
2022-12-13T02:23:53.628Z,-2.00
2022-12-13T02:26:20.729Z,-2.00
2022-12-13T02:28:56.716Z,-2.10
2022-12-13T02:31:35.771Z,-2.00
2022-12-13T02:34:07.293Z,-2.00
2022-12-13T02:36:46.849Z,-2.00
2022-12-13T02:39:13.636Z,-2.00
2022-12-13T02:41:58.865Z,-1.40
2022-12-13T02:44:29.763Z,-2.00
2022-12-13T02:46:58.241Z,-2.10
2022-12-13T02:49:25.935Z,-1.70
2022-12-13T02:51:52.699Z,-2.10
2022-12-13T02:54:19.547Z,-2.10
2022-12-13T02:56:56.169Z,-1.60
2022-12-13T02:59:22.975Z,-2.20
2022-12-13T03:01:54.820Z,-2.20
2022-12-13T03:04:36.833Z,-2.20
2022-12-13T03:07:03.713Z,-2.20
2022-12-13T03:09:37.362Z,-2.00
2022-12-13T03:12:22.936Z,-1.90
2022-12-13T03:14:53.634Z,-1.50
2022-12-13T03:17:23.022Z,-2.10
2022-12-13T03:19:51.757Z,-0.80
2022-12-13T03:22:19.777Z,-0.70
2022-12-13T03:24:46.507Z,-1.00
2022-12-13T03:27:13.804Z,-2.50
2022-12-13T03:29:40.676Z,-2.30
2022-12-13T03:32:09.796Z,-2.30
2022-12-13T03:34:44.214Z,-2.30
2022-12-13T03:37:12.315Z,-3.00
2022-12-13T03:39:39.074Z,-2.30
2022-12-13T03:42:05.818Z,-2.30
2022-12-13T03:44:32.911Z,-2.30
2022-12-13T03:47:00.686Z,-2.30
2022-12-13T03:49:34.995Z,-2.30
2022-12-13T03:52:02.180Z,-2.30
2022-12-13T03:54:28.925Z,-2.40
2022-12-13T03:56:55.699Z,-2.20
2022-12-13T03:59:22.415Z,-1.10
2022-12-13T04:01:49.326Z,-2.50
2022-12-13T04:04:16.333Z,-2.40
2022-12-13T04:06:43.068Z,-2.50
2022-12-13T04:09:09.807Z,-1.40
2022-12-13T04:11:55.289Z,-2.50
2022-12-13T04:14:23.096Z,-2.50
2022-12-13T04:16:51.088Z,-2.50
2022-12-13T04:19:23.809Z,-2.30
2022-12-13T04:21:51.729Z,-2.50
2022-12-13T04:24:20.466Z,-2.50
2022-12-13T04:26:47.269Z,-2.50
2022-12-13T04:29:13.978Z,-2.50
2022-12-13T04:31:40.786Z,-2.00
2022-12-13T04:34:07.736Z,-2.60
2022-12-13T04:36:34.776Z,-2.60
2022-12-13T04:39:21.856Z,-2.50
2022-12-13T04:41:49.657Z,-2.50
2022-12-13T04:44:29.006Z,-1.40
2022-12-13T04:47:01.327Z,-1.00
2022-12-13T04:49:29.305Z,-2.50
2022-12-13T04:52:00.905Z,-1.40
2022-12-13T04:54:36.021Z,-2.60
2022-12-13T04:57:07.697Z,-2.60
2022-12-13T04:59:34.651Z,-2.60
2022-12-13T05:02:01.386Z,-2.50
2022-12-13T05:04:32.629Z,-2.60
2022-12-13T05:06:59.630Z,-2.60
2022-12-13T05:09:26.716Z,-2.60
2022-12-13T05:11:53.512Z,-2.60
2022-12-13T05:14:33.066Z,-1.60
2022-12-13T05:17:00.503Z,-2.50
2022-12-13T05:19:30.732Z,-1.30
2022-12-13T05:21:58.328Z,-2.60
2022-12-13T05:24:28.511Z,-2.30
2022-12-13T05:26:55.217Z,-2.60
2022-12-13T05:29:22.031Z,-1.70
2022-12-13T05:31:48.893Z,-2.60
2022-12-13T05:35:09.034Z,-1.70
2022-12-13T05:37:38.607Z,-2.40
2022-12-13T05:40:08.080Z,-2.20
2022-12-13T05:42:38.172Z,-2.60
2022-12-13T05:45:11.292Z,-2.50
2022-12-13T05:47:38.386Z,-2.50
2022-12-13T05:50:10.916Z,-0.90
2022-12-13T05:52:37.690Z,-2.50
2022-12-13T05:55:04.551Z,-2.40
2022-12-13T05:57:31.350Z,-2.60
2022-12-13T05:59:58.148Z,-2.60
2022-12-13T06:02:25.025Z,-1.00
2022-12-13T06:04:51.851Z,-2.30
2022-12-13T06:07:18.708Z,-2.40
2022-12-13T06:09:45.464Z,-2.30
2022-12-13T06:12:31.224Z,-2.30
2022-12-13T06:15:01.217Z,-2.30
2022-12-13T06:17:32.478Z,-0.80
2022-12-13T06:19:59.357Z,-2.30
2022-12-13T06:22:26.291Z,-1.60
2022-12-13T06:24:53.661Z,-1.10
2022-12-13T06:27:21.208Z,-2.20
2022-12-13T06:29:48.011Z,-2.30
2022-12-13T06:32:14.933Z,-1.00
2022-12-13T06:34:51.060Z,-0.90
2022-12-13T06:37:17.894Z,-2.10
2022-12-13T06:39:44.983Z,-0.90
2022-12-13T06:42:22.073Z,-2.10
2022-12-13T06:44:56.024Z,-2.10
2022-12-13T06:47:31.844Z,-2.10
2022-12-13T06:49:59.325Z,-2.30
2022-12-13T06:52:32.512Z,-1.50
2022-12-13T06:55:00.038Z,-1.20
2022-12-13T06:57:26.837Z,-2.20
2022-12-13T06:59:53.694Z,-1.10
2022-12-13T07:02:25.860Z,-2.10
2022-12-13T07:04:53.213Z,-1.90
2022-12-13T07:07:20.027Z,-0.70
2022-12-13T07:09:46.824Z,-1.90
2022-12-13T07:12:13.838Z,-0.90
2022-12-13T07:14:41.449Z,-2.00
2022-12-13T07:17:08.335Z,-2.00
2022-12-13T07:19:36.020Z,-1.70
2022-12-13T07:22:06.069Z,-2.00
2022-12-13T07:24:34.039Z,-2.10
2022-12-13T07:27:03.600Z,-2.10
2022-12-13T07:29:30.387Z,-0.40
2022-12-13T07:32:01.116Z,-2.00
2022-12-13T07:34:29.110Z,-1.70
2022-12-13T07:36:58.364Z,-1.90
2022-12-13T07:39:28.096Z,-1.90
2022-12-13T07:41:55.618Z,-1.90
2022-12-13T07:44:22.906Z,-1.90
2022-12-13T07:46:49.648Z,-1.90
2022-12-13T07:49:16.548Z,-2.10
2022-12-13T07:51:43.371Z,-2.10
2022-12-13T07:54:10.115Z,-1.00
2022-12-13T07:56:36.900Z,-1.80
2022-12-13T07:59:03.812Z,-0.80
2022-12-13T08:01:31.790Z,-1.80
2022-12-13T08:03:58.731Z,-1.80
2022-12-13T08:06:25.497Z,-1.80
2022-12-13T08:08:56.360Z,-2.00
2022-12-13T08:11:23.181Z,-0.50
2022-12-13T08:13:49.997Z,-1.80
2022-12-13T08:16:28.114Z,-0.50
2022-12-13T08:19:01.904Z,-0.50
2022-12-13T08:21:53.345Z,-0.70
2022-12-13T08:24:19.933Z,-1.80
2022-12-13T08:26:46.785Z,-1.70
2022-12-13T08:29:13.558Z,-1.70
2022-12-13T08:31:50.425Z,-1.90
2022-12-13T08:34:17.177Z,-1.50
2022-12-13T08:36:44.058Z,-1.40
2022-12-13T08:39:10.818Z,-1.70
2022-12-13T08:41:39.469Z,-1.70
2022-12-13T08:44:06.466Z,-1.00
2022-12-13T08:46:33.608Z,-1.60
2022-12-13T08:49:00.417Z,-1.30
2022-12-13T08:51:32.329Z,-1.60
2022-12-13T08:54:10.285Z,-1.50
2022-12-13T08:56:38.166Z,-1.50
2022-12-13T08:59:05.012Z,-0.40
2022-12-13T09:01:31.864Z,-1.40
2022-12-13T09:03:58.761Z,-0.80
2022-12-13T09:06:25.435Z,-0.50
2022-12-13T09:08:55.345Z,-1.30
2022-12-13T09:11:36.510Z,-1.10
2022-12-13T09:14:06.889Z,-1.20
2022-12-13T09:16:50.482Z,-1.00
2022-12-13T09:19:25.523Z,-1.10
2022-12-13T09:22:04.780Z,-1.00
2022-12-13T09:24:36.262Z,-0.70
2022-12-13T09:27:09.372Z,-1.30
2022-12-13T09:29:37.416Z,-0.80
2022-12-13T09:32:04.400Z,0.40
2022-12-13T09:34:33.160Z,-0.80
2022-12-13T09:37:01.630Z,-0.70
2022-12-13T09:39:29.358Z,-0.60
2022-12-13T09:42:01.051Z,-0.60
2022-12-13T09:44:32.566Z,-0.50
2022-12-13T09:47:01.508Z,-0.40
2022-12-13T09:49:36.169Z,0.50
2022-12-13T09:52:11.636Z,-0.30
2022-12-13T09:54:49.214Z,-0.20
2022-12-13T09:57:34.740Z,0.00
2022-12-13T10:00:06.288Z,-0.10
2022-12-13T10:02:43.158Z,0.00
2022-12-13T10:05:22.665Z,0.90
2022-12-13T10:07:51.547Z,0.10
2022-12-13T10:10:18.882Z,0.20
2022-12-13T10:12:45.917Z,0.20
2022-12-13T10:15:13.039Z,0.30
2022-12-13T10:17:41.125Z,0.40
2022-12-13T10:20:08.387Z,0.30
2022-12-13T10:22:35.158Z,0.40
2022-12-13T10:25:05.402Z,1.60
2022-12-13T10:27:36.894Z,0.50
2022-12-13T10:30:13.013Z,0.50
2022-12-13T10:32:52.739Z,0.60
2022-12-13T10:35:22.978Z,0.60
2022-12-13T10:37:49.984Z,0.70
2022-12-13T10:40:33.752Z,0.70
2022-12-13T10:43:07.842Z,0.70
2022-12-13T10:45:37.765Z,0.80
2022-12-13T10:48:04.729Z,0.90
2022-12-13T10:50:31.685Z,0.90
2022-12-13T10:53:00.442Z,0.90
2022-12-13T10:55:28.904Z,0.90
2022-12-13T10:57:57.635Z,0.90
2022-12-13T11:00:31.660Z,1.80
2022-12-13T11:03:00.637Z,1.00
2022-12-13T11:05:28.548Z,1.10
2022-12-13T11:07:55.902Z,1.00
2022-12-13T11:10:28.772Z,1.20
2022-12-13T11:13:18.031Z,2.00
2022-12-13T11:15:45.407Z,1.10
2022-12-13T11:18:31.638Z,1.20
2022-12-13T11:21:02.517Z,1.20
2022-12-13T11:23:34.419Z,1.30
2022-12-13T11:26:04.460Z,1.30
2022-12-13T11:28:31.433Z,1.80
2022-12-13T11:31:05.050Z,2.80
2022-12-13T11:33:35.104Z,1.40
2022-12-13T11:36:15.521Z,1.50
2022-12-13T11:38:57.827Z,2.30
2022-12-13T11:42:04.342Z,1.60
2022-12-13T11:44:43.084Z,1.60
2022-12-13T11:47:19.694Z,1.70
2022-12-13T11:49:47.400Z,1.70
2022-12-13T11:55:12.002Z,1.80
2022-12-13T11:57:49.215Z,1.90
2022-12-13T12:00:34.482Z,1.90
2022-12-13T12:03:26.702Z,2.00
2022-12-13T12:06:08.597Z,2.30
2022-12-13T12:08:37.241Z,2.20
2022-12-13T12:11:08.899Z,2.20
2022-12-13T12:13:51.654Z,2.20
2022-12-13T12:16:38.227Z,2.20
2022-12-13T12:19:15.095Z,2.20
2022-12-13T12:22:15.221Z,1.20
2022-12-13T12:24:45.853Z,2.30
2022-12-13T12:27:24.704Z,1.90
2022-12-13T12:30:00.407Z,2.20
2022-12-13T12:32:32.008Z,2.30
2022-12-13T12:34:59.070Z,2.20
2022-12-13T12:37:30.527Z,2.30
2022-12-13T12:40:08.179Z,3.60
2022-12-13T12:42:56.571Z,2.40
2022-12-13T12:45:56.474Z,2.30
2022-12-13T12:49:11.961Z,2.30
2022-12-13T12:51:42.031Z,1.50
2022-12-13T12:54:17.125Z,2.30
2022-12-13T12:56:50.063Z,2.30
2022-12-13T12:59:22.962Z,2.30
2022-12-13T13:01:56.649Z,2.40
2022-12-13T13:04:26.453Z,2.30
2022-12-13T13:07:01.418Z,2.80
2022-12-13T13:09:29.211Z,2.30
2022-12-13T13:11:59.505Z,2.20
2022-12-13T13:14:29.383Z,2.30
2022-12-13T13:16:56.985Z,2.20
2022-12-13T13:19:33.098Z,2.20
2022-12-13T13:22:01.829Z,2.20
2022-12-13T13:24:32.270Z,2.60
2022-12-13T13:27:13.287Z,2.50
2022-12-13T13:29:43.791Z,2.20
2022-12-13T13:32:11.513Z,2.20
2022-12-13T13:34:42.456Z,3.10
2022-12-13T13:37:24.035Z,2.20
2022-12-13T13:40:03.692Z,2.10
2022-12-13T13:42:31.370Z,2.10
2022-12-13T13:45:02.411Z,2.10
2022-12-13T13:47:41.206Z,3.10
2022-12-13T13:50:08.682Z,2.10
2022-12-13T13:52:45.229Z,2.10
2022-12-13T13:55:28.104Z,2.40
2022-12-13T13:58:10.649Z,2.10
2022-12-13T14:00:59.652Z,2.10
2022-12-13T14:03:34.547Z,2.00
2022-12-13T14:06:06.727Z,2.00
2022-12-13T14:08:42.266Z,2.00
2022-12-13T14:11:29.649Z,2.00
2022-12-13T14:14:00.795Z,2.00
2022-12-13T14:16:37.334Z,1.90
2022-12-13T14:19:23.293Z,2.10
2022-12-13T14:22:05.914Z,1.90
2022-12-13T14:24:51.320Z,1.90
2022-12-13T14:27:40.126Z,1.90
2022-12-13T14:30:27.991Z,1.90
2022-12-13T14:32:55.922Z,1.90
2022-12-13T14:35:27.989Z,0.90
2022-12-13T14:37:58.485Z,1.80
2022-12-13T14:40:28.318Z,1.90
2022-12-13T14:42:55.430Z,3.20
2022-12-13T14:45:23.313Z,1.90
2022-12-13T14:47:51.831Z,2.00
2022-12-13T14:50:19.027Z,2.30
2022-12-13T14:52:49.460Z,1.80
2022-12-13T14:55:30.674Z,1.80
2022-12-13T14:58:02.160Z,1.80
2022-12-13T15:00:35.838Z,1.80
2022-12-13T15:03:03.603Z,1.90
2022-12-13T15:05:36.935Z,2.70
2022-12-13T15:08:40.696Z,1.90
2022-12-13T15:11:09.928Z,1.90
2022-12-13T15:16:55.330Z,1.40
2022-12-13T15:19:31.101Z,1.70
2022-12-13T15:25:34.978Z,1.50
2022-12-13T15:30:49.726Z,1.60
2022-12-13T15:33:21.171Z,0.40
2022-12-13T15:35:49.458Z,2.50
2022-12-13T15:38:28.271Z,0.90
2022-12-13T15:40:56.617Z,1.40
2022-12-13T15:43:26.866Z,1.40
2022-12-13T15:45:56.626Z,2.00
2022-12-13T15:48:25.762Z,1.70
2022-12-13T15:51:04.606Z,1.30
2022-12-13T15:53:32.315Z,2.70
2022-12-13T15:56:01.188Z,2.60
2022-12-13T15:58:37.594Z,1.10
2022-12-13T16:01:35.936Z,2.10
2022-12-13T16:04:06.893Z,1.30
2022-12-13T16:06:34.162Z,1.10
2022-12-13T16:09:02.272Z,1.10
2022-12-13T16:11:47.767Z,1.10
2022-12-13T16:14:35.670Z,1.10
2022-12-13T16:17:08.972Z,1.10
2022-12-13T16:19:39.439Z,1.10
2022-12-13T16:22:08.732Z,1.40
2022-12-13T16:24:39.845Z,1.20
2022-12-13T16:27:08.318Z,1.00
2022-12-13T16:29:38.812Z,1.00
2022-12-13T16:32:08.448Z,0.90
2022-12-13T16:34:36.359Z,1.70
2022-12-13T16:37:08.736Z,0.90
2022-12-13T16:39:54.007Z,0.70
2022-12-13T16:42:26.599Z,0.90
2022-12-13T16:45:24.771Z,1.00
2022-12-13T16:47:49.087Z,1.70
2022-12-13T16:50:17.962Z,0.80
2022-12-13T16:52:49.226Z,0.80
2022-12-13T16:55:16.276Z,0.80
2022-12-13T16:57:45.068Z,0.80
2022-12-13T17:00:19.215Z,0.90
2022-12-13T17:02:49.054Z,0.80
2022-12-13T17:05:20.633Z,0.80
2022-12-13T17:07:48.252Z,0.70
2022-12-13T17:10:15.512Z,0.70
2022-12-13T17:12:43.310Z,0.80
2022-12-13T17:15:15.046Z,1.70
2022-12-13T17:18:06.999Z,0.70
2022-12-13T17:20:44.731Z,0.90
2022-12-13T17:23:17.826Z,0.90
2022-12-13T17:25:58.797Z,2.20
2022-12-13T17:31:34.932Z,0.80
2022-12-13T17:39:47.044Z,0.70
2022-12-13T17:42:14.206Z,0.70
2022-12-13T17:44:41.292Z,0.60
2022-12-13T17:52:41.784Z,0.60
2022-12-13T17:55:18.555Z,1.70
2022-12-13T17:57:46.055Z,0.70
2022-12-13T18:00:25.542Z,0.50
2022-12-13T18:03:15.572Z,0.50
2022-12-13T18:09:10.621Z,0.50
2022-12-13T18:11:39.903Z,0.60
2022-12-13T18:16:57.532Z,0.50
2022-12-13T18:19:36.819Z,-0.10
2022-12-13T18:22:07.050Z,0.50
2022-12-13T18:24:38.945Z,0.40
2022-12-13T18:30:29.262Z,0.50
2022-12-13T18:33:21.660Z,0.60
2022-12-13T18:35:54.726Z,0.40
2022-12-13T18:38:54.235Z,-0.10
2022-12-13T18:44:16.775Z,0.80
2022-12-13T18:46:46.124Z,0.40
2022-12-13T18:49:13.808Z,0.40
2022-12-13T18:51:42.988Z,0.40
2022-12-13T18:54:14.141Z,0.30
2022-12-13T18:59:32.364Z,0.50
2022-12-13T19:01:59.569Z,0.50
2022-12-13T19:04:26.626Z,0.40
2022-12-13T19:06:56.073Z,1.10
2022-12-13T19:09:37.010Z,1.00
2022-12-13T19:12:04.085Z,0.80
2022-12-13T19:14:40.491Z,0.30
2022-12-13T19:17:14.770Z,0.00
2022-12-13T19:19:41.723Z,0.20
2022-12-13T19:22:16.159Z,0.70
2022-12-13T19:24:43.349Z,0.30
2022-12-13T19:27:13.409Z,2.20
2022-12-13T19:29:41.925Z,0.30
2022-12-13T19:32:08.732Z,0.30
2022-12-13T19:34:35.844Z,0.40
2022-12-13T19:37:06.227Z,0.40
2022-12-13T19:39:33.719Z,0.30
2022-12-13T19:42:03.232Z,1.80
2022-12-13T19:44:30.532Z,0.30
2022-12-13T19:46:57.481Z,1.10
2022-12-13T19:49:29.922Z,0.30
2022-12-13T19:51:57.601Z,0.00
2022-12-13T19:54:26.269Z,0.30
2022-12-13T19:56:53.765Z,0.40
2022-12-13T19:59:35.539Z,0.30
2022-12-13T20:02:03.124Z,0.30
2022-12-13T20:04:38.867Z,0.30
2022-12-13T20:09:43.297Z,0.20
2022-12-13T20:12:10.345Z,1.20
2022-12-13T20:14:38.368Z,0.20
2022-12-13T20:17:05.436Z,0.30
2022-12-13T20:19:32.612Z,0.30
2022-12-13T20:21:59.628Z,0.20
2022-12-13T20:24:45.211Z,0.10
2022-12-13T20:27:15.971Z,0.50
2022-12-13T20:29:55.829Z,0.10
2022-12-13T20:43:48.276Z,0.10
2022-12-13T20:46:15.818Z,0.10
2022-12-13T20:48:43.978Z,1.20
2022-12-13T20:51:11.754Z,0.30
2022-12-13T20:53:44.935Z,0.00
2022-12-13T20:56:16.142Z,0.10
2022-12-13T20:58:51.145Z,0.50
2022-12-13T21:01:22.300Z,0.10
2022-12-13T21:03:49.773Z,-0.20
2022-12-13T21:06:16.905Z,-0.40
2022-12-13T21:08:51.344Z,0.10
2022-12-13T21:11:25.176Z,0.10
2022-12-13T21:14:01.172Z,0.20
2022-12-13T21:16:57.901Z,0.10
2022-12-13T21:19:25.835Z,1.80
2022-12-13T21:22:05.213Z,0.30
2022-12-13T21:24:38.525Z,0.20
2022-12-13T21:30:39.816Z,0.20
2022-12-13T21:35:59.205Z,0.30
2022-12-13T21:38:33.439Z,0.80
2022-12-13T21:43:55.784Z,0.30
2022-12-13T21:46:25.973Z,0.40
2022-12-13T21:48:58.424Z,1.30
2022-12-13T21:51:32.765Z,-0.20
2022-12-13T22:28:36.979Z,0.40
2022-12-13T22:31:03.861Z,0.40
2022-12-13T22:33:31.466Z,0.30
2022-12-13T22:36:01.182Z,0.40
2022-12-13T22:38:28.281Z,1.00
2022-12-13T22:40:59.796Z,1.50
2022-12-13T22:43:27.268Z,1.20
2022-12-13T22:46:05.186Z,0.30
2022-12-13T22:48:35.185Z,0.50
2022-12-13T22:51:11.930Z,0.40
2022-12-13T22:53:39.176Z,0.50
2022-12-13T22:56:10.534Z,0.40
2022-12-13T22:58:37.611Z,0.40
2022-12-13T23:01:08.936Z,0.40
2022-12-13T23:03:39.296Z,0.40
2022-12-13T23:06:09.506Z,0.40
2022-12-13T23:08:40.301Z,0.40
2022-12-13T23:11:29.079Z,0.40
2022-12-13T23:14:13.285Z,1.70
2022-12-13T23:16:40.621Z,0.20
2022-12-13T23:19:39.872Z,0.70
2022-12-13T23:21:55.803Z,0.40
2022-12-13T23:24:22.931Z,0.40
2022-12-13T23:26:52.397Z,0.50
2022-12-13T23:29:19.193Z,0.50
2022-12-13T23:31:48.548Z,0.50
2022-12-13T23:34:16.102Z,0.70
2022-12-13T23:36:46.141Z,0.60
2022-12-13T23:39:13.127Z,0.50
2022-12-13T23:41:39.958Z,0.50
2022-12-13T23:44:06.861Z,0.50
2022-12-13T23:46:34.446Z,1.00
2022-12-13T23:49:01.979Z,0.50
2022-12-13T23:51:30.963Z,1.30
2022-12-13T23:53:57.835Z,0.50
2022-12-13T23:56:30.797Z,0.50
2022-12-13T23:58:57.960Z,-0.20
